Tecumseh, Oklahoma
Current Conditions -  °F | °C
As of 11:58 AM on Thursday 30 Oct 2014 (Local Time) from KTIK Reporting Station
Clear Clear  
Wind Chill: 69°   Ceiling: Unl
Heat Index: 69°   Visibility: 10mi
Dew Point: 48°   Wind: 10mph
Humidity: 48%   Direction: 250°WSW
Pressure: 30.15"   Gusts: NA
Location:  35.26°N, 96.94°W
Report Text: KTIK 301658Z AUTO 25009KT 10SM CLR 20/09 A3015 RMK AO2 SLP212 T02040089 $
Loading
Personal Weather Stations






























Interactive Weather Map
Tropical Storm Tracking
New forecast layout! Learn more

10-Day Weather Forecast

Advertisements
Track Severe Weather on mobile